Wallins, Kentucky
Current Conditions -  °F | °C
As of 2:35 PM on Monday 22 Dec 2014 (Local Time) from KI35 Reporting Station
Overcast Overcast  
Wind Chill: 55°   Ceiling: 10000
Heat Index: 55°   Visibility: 10mi
Dew Point: 41°   Wind: 8mph
Humidity: 58%   Direction: 110°ESE
Pressure: 29.85"   Gusts: NA
Location:  36.8092°N, 83.4253°W
Report Text: KI35 221935Z AUTO 11007KT 090V160 10SM OVC100 13/05 A2985 RMK AO1
Loading
Personal Weather Stations






























Interactive Weather Map New forecast layout! Learn more

10-Day Weather Forecast

Advertisements
Track Severe Weather on mobile